createdAt,value
2023-03-31T00:01:42.617Z,6.60
2023-03-31T00:04:13.282Z,5.60
2023-03-31T00:06:42.015Z,11.67
2023-03-31T00:09:18.925Z,6.93
2023-03-31T00:11:45.813Z,5.73
2023-03-31T00:14:12.745Z,9.67
2023-03-31T00:16:39.790Z,11.47
2023-03-31T00:19:09.922Z,4.47
2023-03-31T00:21:36.881Z,11.07
2023-03-31T00:24:06.338Z,6.37
2023-03-31T00:26:35.026Z,8.27
2023-03-31T00:29:04.629Z,7.23
2023-03-31T00:31:31.461Z,8.57
2023-03-31T00:33:58.297Z,11.87
2023-03-31T00:36:28.887Z,11.87
2023-03-31T00:39:10.415Z,7.33
2023-03-31T00:41:39.224Z,8.87
2023-03-31T00:44:24.258Z,6.63
2023-03-31T00:46:58.562Z,5.93
2023-03-31T00:49:37.455Z,7.73
2023-03-31T00:52:09.507Z,6.87
2023-03-31T00:54:37.460Z,9.00
2023-03-31T00:57:06.788Z,8.17
2023-03-31T00:59:39.519Z,5.33
2023-03-31T01:02:06.462Z,6.80
2023-03-31T01:04:41.571Z,8.00
2023-03-31T01:07:18.465Z,12.30
2023-03-31T01:09:47.417Z,6.57
2023-03-31T01:12:17.741Z,7.53
2023-03-31T01:14:44.741Z,9.73
2023-03-31T01:17:12.002Z,7.77
2023-03-31T01:20:12.561Z,5.47
2023-03-31T01:23:14.577Z,10.20
2023-03-31T01:25:56.371Z,9.73
2023-03-31T01:28:41.633Z,7.07
2023-03-31T01:31:30.931Z,9.03
2023-03-31T01:34:19.336Z,8.40
2023-03-31T01:37:07.442Z,7.90
2023-03-31T01:39:58.137Z,6.93
2023-03-31T01:42:33.583Z,8.37
2023-03-31T01:45:30.525Z,6.30
2023-03-31T01:48:23.584Z,7.57
2023-03-31T01:51:02.576Z,6.13
2023-03-31T01:53:41.349Z,6.73
2023-03-31T01:56:29.076Z,10.90
2023-03-31T01:59:03.144Z,6.80
2023-03-31T02:01:37.995Z,7.20
2023-03-31T02:04:14.980Z,6.70
2023-03-31T02:06:46.860Z,7.83
2023-03-31T02:09:18.576Z,9.63
2023-03-31T02:11:47.056Z,9.80
2023-03-31T02:14:19.112Z,11.70
2023-03-31T02:16:47.675Z,8.87
2023-03-31T02:19:18.858Z,5.97
2023-03-31T02:21:49.706Z,8.80
2023-03-31T02:24:19.335Z,6.27
2023-03-31T02:26:54.612Z,9.13
2023-03-31T02:29:21.596Z,6.67
2023-03-31T02:31:57.627Z,6.47
2023-03-31T02:34:24.390Z,5.83
2023-03-31T02:36:51.174Z,9.00
2023-03-31T02:39:24.147Z,8.97
2023-03-31T02:41:52.382Z,9.30
2023-03-31T02:44:21.113Z,6.80
2023-03-31T02:46:48.370Z,6.70
2023-03-31T02:49:17.373Z,7.37
2023-03-31T02:52:04.047Z,5.63
2023-03-31T02:55:04.174Z,8.33
2023-03-31T02:57:52.977Z,5.10
2023-03-31T03:00:57.208Z,5.03
2023-03-31T03:03:57.651Z,7.40
2023-03-31T03:06:40.550Z,3.20
2023-03-31T03:09:31.839Z,4.13
2023-03-31T03:12:05.773Z,6.63
2023-03-31T03:14:51.504Z,6.23
2023-03-31T03:17:25.527Z,5.30
2023-03-31T03:19:59.281Z,4.73
2023-03-31T03:22:26.014Z,2.63
2023-03-31T03:24:53.701Z,5.63
2023-03-31T03:27:22.841Z,2.87
2023-03-31T03:29:49.365Z,6.80
2023-03-31T03:32:16.023Z,5.17
2023-03-31T03:34:42.743Z,6.97
2023-03-31T03:37:09.265Z,6.27
2023-03-31T03:39:35.956Z,4.43
2023-03-31T03:42:02.656Z,7.73
2023-03-31T03:44:29.488Z,2.97
2023-03-31T03:46:56.047Z,6.57
2023-03-31T03:49:22.596Z,4.10
2023-03-31T03:51:49.127Z,5.23
2023-03-31T03:54:16.083Z,5.27
2023-03-31T03:56:42.679Z,5.03
2023-03-31T03:59:11.115Z,7.50
2023-03-31T04:01:37.680Z,7.33
2023-03-31T04:04:04.692Z,6.17
2023-03-31T04:06:31.305Z,5.77
2023-03-31T04:08:57.839Z,5.90
2023-03-31T04:11:24.532Z,3.53
2023-03-31T04:13:50.997Z,8.47
2023-03-31T04:16:17.595Z,6.97
2023-03-31T04:18:45.438Z,5.67
2023-03-31T04:21:15.549Z,5.07
2023-03-31T04:23:48.459Z,6.67
2023-03-31T04:26:17.240Z,4.37
2023-03-31T04:28:46.658Z,8.60
2023-03-31T04:31:26.921Z,3.33
2023-03-31T04:33:54.580Z,7.33
2023-03-31T04:36:21.886Z,7.40
2023-03-31T04:38:56.421Z,7.80
2023-03-31T04:41:24.338Z,10.87
2023-03-31T04:43:50.923Z,5.27
2023-03-31T04:46:17.482Z,7.20
2023-03-31T04:48:44.044Z,8.40
2023-03-31T04:51:10.640Z,6.40
2023-03-31T04:53:37.193Z,7.23
2023-03-31T04:56:04.274Z,9.33
2023-03-31T04:58:31.076Z,10.37
2023-03-31T05:00:57.621Z,8.40
2023-03-31T05:03:24.399Z,8.53
2023-03-31T05:05:50.977Z,6.80
2023-03-31T05:08:17.570Z,7.13
2023-03-31T05:10:44.355Z,10.17
2023-03-31T05:13:11.092Z,12.40
2023-03-31T05:15:39.590Z,8.37
2023-03-31T05:18:07.025Z,11.03
2023-03-31T05:20:33.910Z,7.10
2023-03-31T05:23:00.500Z,10.23
2023-03-31T05:25:32.581Z,8.77
2023-03-31T05:28:00.236Z,8.73
2023-03-31T05:30:27.586Z,11.37
2023-03-31T05:32:54.425Z,9.47
2023-03-31T05:35:21.069Z,8.97
2023-03-31T05:37:47.584Z,6.77
2023-03-31T05:40:14.121Z,7.47
2023-03-31T05:42:41.800Z,7.83
2023-03-31T05:45:09.524Z,10.23
2023-03-31T05:47:36.762Z,13.93
2023-03-31T05:50:07.903Z,12.37
2023-03-31T05:52:35.457Z,11.37
2023-03-31T05:55:02.514Z,10.67
2023-03-31T05:57:29.125Z,9.40
2023-03-31T05:59:55.870Z,13.20
2023-03-31T06:02:22.569Z,15.07
2023-03-31T06:04:50.216Z,10.47
2023-03-31T06:07:17.860Z,11.47
2023-03-31T06:09:45.746Z,18.50
2023-03-31T06:12:12.297Z,24.20
2023-03-31T06:14:38.866Z,17.47
2023-03-31T06:17:05.387Z,10.87
2023-03-31T06:19:31.976Z,12.67
2023-03-31T06:21:58.750Z,8.57
2023-03-31T06:24:25.876Z,11.60
2023-03-31T06:26:53.761Z,11.90
2023-03-31T06:29:20.811Z,9.53
2023-03-31T06:31:47.599Z,10.23
2023-03-31T06:34:14.203Z,14.10
2023-03-31T06:36:41.932Z,8.53
2023-03-31T06:39:08.478Z,13.43
2023-03-31T06:41:35.015Z,11.60
2023-03-31T06:44:01.546Z,9.73
2023-03-31T06:46:28.377Z,16.10
2023-03-31T06:48:55.080Z,11.07
2023-03-31T06:51:21.651Z,9.20
2023-03-31T06:53:48.199Z,9.57
2023-03-31T06:56:14.929Z,11.80
2023-03-31T06:58:41.461Z,9.27
2023-03-31T07:01:08.416Z,11.03
2023-03-31T07:03:35.178Z,14.93
2023-03-31T07:06:01.874Z,17.00
2023-03-31T07:08:28.708Z,25.87
2023-03-31T07:10:58.363Z,31.40
2023-03-31T07:13:25.952Z,14.13
2023-03-31T07:15:53.696Z,12.97
2023-03-31T07:18:20.896Z,13.80
2023-03-31T07:20:50.826Z,10.27
2023-03-31T07:23:18.484Z,11.97
2023-03-31T07:25:46.860Z,10.70
2023-03-31T07:28:13.493Z,11.87
2023-03-31T07:30:41.083Z,13.40
2023-03-31T07:33:08.124Z,12.50
2023-03-31T07:35:38.277Z,7.10
2023-03-31T07:38:04.694Z,13.60
2023-03-31T07:40:31.318Z,9.80
2023-03-31T07:42:57.840Z,10.17
2023-03-31T07:45:26.269Z,10.13
2023-03-31T07:47:54.025Z,9.97
2023-03-31T07:50:22.221Z,13.50
2023-03-31T07:52:51.466Z,11.23
2023-03-31T07:55:18.396Z,8.60
2023-03-31T07:57:46.796Z,8.70
2023-03-31T08:00:15.716Z,7.07
2023-03-31T08:02:45.048Z,10.90
2023-03-31T08:05:13.485Z,7.83
2023-03-31T08:07:41.960Z,6.43
2023-03-31T08:10:12.251Z,6.03
2023-03-31T08:12:38.802Z,9.60
2023-03-31T08:15:05.979Z,9.00
2023-03-31T08:17:32.581Z,8.17
2023-03-31T08:20:02.782Z,6.00
2023-03-31T08:22:31.748Z,6.60
2023-03-31T08:24:58.220Z,8.93
2023-03-31T08:27:26.075Z,11.83
2023-03-31T08:29:52.557Z,9.67
2023-03-31T08:32:22.568Z,12.73
2023-03-31T08:34:49.057Z,13.10
2023-03-31T08:37:15.739Z,8.97
2023-03-31T08:39:42.265Z,8.07
2023-03-31T08:42:28.569Z,10.77
2023-03-31T08:45:22.841Z,9.27
2023-03-31T08:47:54.391Z,10.80
2023-03-31T08:50:25.648Z,11.87
2023-03-31T08:52:59.093Z,9.67
2023-03-31T08:55:34.426Z,11.73
2023-03-31T08:58:13.233Z,8.77
2023-03-31T09:01:02.070Z,9.23
2023-03-31T09:03:34.538Z,10.73
2023-03-31T09:06:08.198Z,9.87
2023-03-31T09:08:41.292Z,13.73
2023-03-31T09:11:13.351Z,10.40
2023-03-31T09:13:44.548Z,8.07
2023-03-31T09:16:35.756Z,9.53
2023-03-31T09:19:02.961Z,9.63
2023-03-31T09:21:33.920Z,12.17
2023-03-31T09:24:17.713Z,6.87
2023-03-31T09:26:49.391Z,6.17
2023-03-31T09:29:42.106Z,7.57
2023-03-31T09:32:37.283Z,5.90
2023-03-31T09:35:18.568Z,4.90
2023-03-31T09:37:45.111Z,4.10
2023-03-31T09:40:18.121Z,5.43
2023-03-31T09:42:46.581Z,6.80
2023-03-31T09:45:18.446Z,7.40
2023-03-31T09:47:48.711Z,4.07
2023-03-31T09:50:16.350Z,8.00
2023-03-31T09:52:47.621Z,10.73
2023-03-31T09:55:39.155Z,8.77
2023-03-31T09:58:08.619Z,10.50
2023-03-31T10:00:36.183Z,11.03
2023-03-31T10:03:14.229Z,17.50
2023-03-31T10:05:52.324Z,9.30
2023-03-31T10:08:31.517Z,13.53
2023-03-31T10:11:09.933Z,10.97
2023-03-31T10:13:47.331Z,13.33
2023-03-31T10:16:22.474Z,14.20
2023-03-31T10:18:49.901Z,11.73
2023-03-31T10:21:23.175Z,10.93
2023-03-31T10:23:51.064Z,10.57
2023-03-31T10:26:21.483Z,12.90
2023-03-31T10:28:55.139Z,10.77
2023-03-31T10:31:27.283Z,12.30
2023-03-31T10:33:55.000Z,18.47
2023-03-31T10:36:29.003Z,9.87
2023-03-31T10:38:56.640Z,11.20
2023-03-31T10:41:29.144Z,12.03
2023-03-31T10:44:02.259Z,7.90
2023-03-31T10:46:52.309Z,8.77
2023-03-31T10:49:21.817Z,7.63
2023-03-31T10:51:52.970Z,8.20
2023-03-31T10:54:20.086Z,8.70
2023-03-31T10:56:49.447Z,8.27
2023-03-31T10:59:17.204Z,8.20
2023-03-31T11:02:00.941Z,7.27
2023-03-31T11:04:33.246Z,9.33
2023-03-31T11:07:21.487Z,7.83
2023-03-31T11:10:15.270Z,9.70
2023-03-31T11:13:07.900Z,6.43
2023-03-31T11:16:03.058Z,6.00
2023-03-31T11:18:48.472Z,7.03
2023-03-31T11:21:26.425Z,6.70
2023-03-31T11:24:07.713Z,6.37
2023-03-31T11:26:52.962Z,9.53
2023-03-31T11:29:37.270Z,4.67
2023-03-31T11:32:31.807Z,8.67
2023-03-31T11:35:19.772Z,7.10
2023-03-31T11:38:27.337Z,7.80
2023-03-31T11:41:07.526Z,6.63
2023-03-31T11:43:56.682Z,5.27
2023-03-31T11:46:45.011Z,5.63
2023-03-31T11:49:22.511Z,6.07
2023-03-31T11:51:59.186Z,4.83
2023-03-31T11:54:37.945Z,5.77
2023-03-31T11:57:17.962Z,4.43
2023-03-31T11:59:52.809Z,2.57
2023-03-31T12:02:36.969Z,3.60
2023-03-31T12:05:06.181Z,2.60
2023-03-31T12:07:52.436Z,1.97
2023-03-31T12:10:23.288Z,3.17
2023-03-31T12:12:57.392Z,2.60
2023-03-31T12:15:30.079Z,3.47
2023-03-31T12:18:02.950Z,3.23
2023-03-31T12:20:37.835Z,3.10
2023-03-31T12:23:11.208Z,2.67
2023-03-31T12:25:51.125Z,4.17
2023-03-31T12:28:19.534Z,2.80
2023-03-31T12:30:48.146Z,3.67
2023-03-31T12:33:40.347Z,3.73
2023-03-31T12:36:10.325Z,2.67
2023-03-31T12:38:55.476Z,2.57
2023-03-31T12:41:47.247Z,4.97
2023-03-31T12:44:25.416Z,3.63
2023-03-31T12:47:12.456Z,5.33
2023-03-31T12:50:06.108Z,4.67
2023-03-31T12:52:41.915Z,5.77
2023-03-31T12:55:38.507Z,5.23
2023-03-31T12:58:32.311Z,4.90
2023-03-31T13:01:06.891Z,6.20
2023-03-31T13:03:42.945Z,5.40
2023-03-31T13:06:29.619Z,4.93
2023-03-31T13:09:02.540Z,4.73
2023-03-31T13:11:37.994Z,6.03
2023-03-31T13:14:06.257Z,2.43
2023-03-31T13:16:35.579Z,4.87
2023-03-31T13:19:02.754Z,2.77
2023-03-31T13:21:29.705Z,4.47
2023-03-31T13:24:01.582Z,4.67
2023-03-31T13:26:34.266Z,5.57
2023-03-31T13:29:16.396Z,7.37
2023-03-31T13:32:01.350Z,5.13
2023-03-31T13:34:34.171Z,5.10
2023-03-31T13:37:45.216Z,7.07
2023-03-31T13:40:36.358Z,4.63
2023-03-31T13:43:15.557Z,5.40
2023-03-31T13:45:59.045Z,4.60
2023-03-31T13:48:44.339Z,6.03
2023-03-31T13:51:15.947Z,7.53
2023-03-31T13:54:16.864Z,5.47
2023-03-31T13:57:04.591Z,6.40
2023-03-31T14:00:14.180Z,5.57
2023-03-31T14:02:58.421Z,5.50
2023-03-31T14:05:39.649Z,9.70
2023-03-31T14:08:14.707Z,5.93
2023-03-31T14:10:42.781Z,4.60
2023-03-31T14:13:13.383Z,3.80
2023-03-31T14:15:59.754Z,4.73
2023-03-31T14:18:34.061Z,7.50
2023-03-31T14:21:28.594Z,5.57
2023-03-31T14:23:54.984Z,6.87
2023-03-31T14:26:30.474Z,3.43
2023-03-31T14:29:19.588Z,7.27
2023-03-31T14:31:56.458Z,4.77
2023-03-31T14:34:26.179Z,4.70
2023-03-31T14:37:04.705Z,7.60
2023-03-31T14:39:40.611Z,3.60
2023-03-31T14:42:13.997Z,8.53
2023-03-31T14:44:42.693Z,3.90
2023-03-31T14:47:16.740Z,5.70
2023-03-31T14:49:43.566Z,5.23
2023-03-31T14:52:17.113Z,5.03
2023-03-31T14:54:50.141Z,6.80
2023-03-31T14:57:28.331Z,5.67
2023-03-31T14:59:55.776Z,3.40
2023-03-31T15:02:34.646Z,7.47
2023-03-31T15:05:07.554Z,5.27
2023-03-31T15:07:35.137Z,5.50
2023-03-31T15:10:02.713Z,6.63
2023-03-31T15:12:30.613Z,6.10
2023-03-31T15:15:03.953Z,6.23
2023-03-31T15:17:36.310Z,4.77
2023-03-31T15:20:37.160Z,5.37
2023-03-31T15:23:21.292Z,6.20
2023-03-31T15:25:48.116Z,5.40
2023-03-31T15:28:17.661Z,4.73
2023-03-31T15:30:47.687Z,5.50
2023-03-31T15:33:22.528Z,5.93
2023-03-31T15:35:49.305Z,4.13
2023-03-31T15:38:18.450Z,3.93
2023-03-31T15:40:56.051Z,2.17
2023-03-31T15:43:43.301Z,7.53
2023-03-31T15:46:15.760Z,4.20
2023-03-31T15:48:56.038Z,3.57
2023-03-31T15:51:43.700Z,3.83
2023-03-31T15:54:51.732Z,4.47
2023-03-31T15:57:22.285Z,5.37
2023-03-31T15:59:55.766Z,6.00
2023-03-31T16:02:26.378Z,5.63
2023-03-31T16:04:59.391Z,8.47
2023-03-31T16:07:32.040Z,5.87
2023-03-31T16:10:28.156Z,6.10
2023-03-31T16:13:01.921Z,4.93
2023-03-31T16:15:44.937Z,3.67
2023-03-31T16:18:37.467Z,5.30
2023-03-31T16:21:06.928Z,4.17
2023-03-31T16:23:38.680Z,6.27
2023-03-31T16:26:06.980Z,2.73
2023-03-31T16:28:36.147Z,3.63
2023-03-31T16:31:05.166Z,4.07
2023-03-31T16:33:53.075Z,6.40
2023-03-31T16:36:19.571Z,6.23
2023-03-31T16:38:46.918Z,4.30
2023-03-31T16:41:15.764Z,4.07
2023-03-31T16:43:45.129Z,3.73
2023-03-31T16:46:11.718Z,4.47
2023-03-31T16:48:38.713Z,5.63
2023-03-31T16:51:05.204Z,5.60
2023-03-31T16:53:34.488Z,3.13
2023-03-31T16:56:01.068Z,3.93
2023-03-31T16:58:31.420Z,2.80
2023-03-31T17:00:58.482Z,4.03
2023-03-31T17:03:25.353Z,2.27
2023-03-31T17:05:56.287Z,2.50
2023-03-31T17:08:27.441Z,2.07
2023-03-31T17:11:06.932Z,2.10
2023-03-31T17:13:33.967Z,1.63
2023-03-31T17:16:08.666Z,1.37
2023-03-31T17:18:42.494Z,0.93
2023-03-31T17:21:11.595Z,1.13
2023-03-31T17:23:39.088Z,1.20
2023-03-31T17:26:06.783Z,2.07
2023-03-31T17:28:33.500Z,1.63
2023-03-31T17:30:59.961Z,2.50
2023-03-31T17:33:27.792Z,1.50
2023-03-31T17:36:01.207Z,2.90
2023-03-31T17:38:27.612Z,2.10
2023-03-31T17:40:54.623Z,2.13
2023-03-31T17:43:21.774Z,3.23
2023-03-31T17:45:48.489Z,3.67
2023-03-31T17:48:16.336Z,4.00
2023-03-31T17:50:43.027Z,4.37
2023-03-31T17:53:09.475Z,4.50
2023-03-31T17:55:38.324Z,2.73
2023-03-31T17:58:06.361Z,3.27
2023-03-31T18:00:32.854Z,6.67
2023-03-31T18:02:59.691Z,4.33
2023-03-31T18:05:26.244Z,6.13
2023-03-31T18:07:53.507Z,4.30
2023-03-31T18:10:20.298Z,3.57
2023-03-31T18:12:46.767Z,6.90
2023-03-31T18:15:13.393Z,4.53
2023-03-31T18:17:39.983Z,3.80
2023-03-31T18:20:07.057Z,4.27
2023-03-31T18:22:33.478Z,4.40
2023-03-31T18:24:59.915Z,4.90
2023-03-31T18:27:26.503Z,2.87
2023-03-31T18:29:52.938Z,4.43
2023-03-31T18:32:19.817Z,5.23
2023-03-31T18:34:46.881Z,5.83
2023-03-31T18:37:13.451Z,5.00
2023-03-31T18:39:39.939Z,5.03
2023-03-31T18:42:06.646Z,5.87
2023-03-31T18:44:34.649Z,2.87
2023-03-31T18:47:01.697Z,3.63
2023-03-31T18:49:28.245Z,2.87
2023-03-31T18:51:54.742Z,1.10
2023-03-31T18:54:21.865Z,1.83
2023-03-31T18:56:48.328Z,4.33
2023-03-31T18:59:14.841Z,4.43
2023-03-31T19:01:41.446Z,2.93
2023-03-31T19:04:09.367Z,2.50
2023-03-31T19:06:36.444Z,1.63
2023-03-31T19:09:03.620Z,2.97
2023-03-31T19:11:30.193Z,2.37
2023-03-31T19:13:56.776Z,2.83
2023-03-31T19:16:27.368Z,2.57
2023-03-31T19:18:54.191Z,2.90
2023-03-31T19:21:21.318Z,0.77
2023-03-31T19:23:48.158Z,2.00
2023-03-31T19:26:16.572Z,3.60
2023-03-31T19:28:42.998Z,2.50
2023-03-31T19:31:10.184Z,2.37
2023-03-31T19:33:36.823Z,3.37
2023-03-31T19:36:04.345Z,1.27
2023-03-31T19:38:32.578Z,1.97
2023-03-31T19:40:59.933Z,3.87
2023-03-31T19:43:27.625Z,2.87
2023-03-31T19:45:56.853Z,4.73
2023-03-31T19:48:25.548Z,1.97
2023-03-31T19:50:55.805Z,3.43
2023-03-31T19:53:23.373Z,3.73
2023-03-31T19:55:59.939Z,3.03
2023-03-31T19:58:28.228Z,4.20
2023-03-31T20:00:56.296Z,3.00
2023-03-31T20:03:24.602Z,5.53
2023-03-31T20:05:51.896Z,2.57
2023-03-31T20:08:18.347Z,2.60
2023-03-31T20:10:44.890Z,2.40
2023-03-31T20:13:11.909Z,1.47
2023-03-31T20:15:40.416Z,2.00
2023-03-31T20:18:07.734Z,3.37
2023-03-31T20:20:34.281Z,5.00
2023-03-31T20:23:00.963Z,5.70
2023-03-31T20:25:27.476Z,5.13
2023-03-31T20:27:53.949Z,4.03
2023-03-31T20:30:20.563Z,3.77
2023-03-31T20:32:47.444Z,3.63
2023-03-31T20:35:14.045Z,5.13
2023-03-31T20:37:40.495Z,5.67
2023-03-31T20:40:07.511Z,4.20
2023-03-31T20:42:34.680Z,5.63
2023-03-31T20:45:01.826Z,3.17
2023-03-31T20:47:28.380Z,3.43
2023-03-31T20:49:54.858Z,6.83
2023-03-31T20:52:21.411Z,4.50
2023-03-31T20:54:47.883Z,5.60
2023-03-31T20:57:14.452Z,3.40
2023-03-31T20:59:40.983Z,2.70
2023-03-31T21:02:07.631Z,5.10
2023-03-31T21:04:34.218Z,2.20
2023-03-31T21:07:01.024Z,3.70
2023-03-31T21:09:27.510Z,3.83
2023-03-31T21:11:54.024Z,2.57
2023-03-31T21:14:20.473Z,2.90
2023-03-31T21:16:46.974Z,4.13
2023-03-31T21:19:13.491Z,5.30
2023-03-31T21:21:41.195Z,5.37
2023-03-31T21:24:09.100Z,3.43
2023-03-31T21:26:35.531Z,4.30
2023-03-31T21:29:02.030Z,4.63
2023-03-31T21:31:28.711Z,1.97
2023-03-31T21:33:58.812Z,7.27
2023-03-31T21:36:26.522Z,5.00
2023-03-31T21:38:54.220Z,2.97
2023-03-31T21:41:24.024Z,2.73
2023-03-31T21:43:51.316Z,3.83
2023-03-31T21:46:20.661Z,5.07
2023-03-31T21:48:48.184Z,7.30
2023-03-31T21:51:15.067Z,4.27
2023-03-31T21:53:41.722Z,9.53
2023-03-31T21:56:08.241Z,3.40
2023-03-31T21:58:34.807Z,3.83
2023-03-31T22:01:03.936Z,3.83
2023-03-31T22:03:34.147Z,4.23
2023-03-31T22:06:03.374Z,4.47
2023-03-31T22:08:31.434Z,5.43
2023-03-31T22:11:00.124Z,2.73
2023-03-31T22:13:27.616Z,4.57
2023-03-31T22:15:54.327Z,5.23
2023-03-31T22:18:22.012Z,5.70
2023-03-31T22:20:49.511Z,2.70
2023-03-31T22:23:16.777Z,3.93
2023-03-31T22:25:43.524Z,1.97
2023-03-31T22:28:10.339Z,4.73
2023-03-31T22:30:36.965Z,3.40
2023-03-31T22:33:03.758Z,3.30
2023-03-31T22:35:30.524Z,5.27
2023-03-31T22:37:57.127Z,4.27
2023-03-31T22:40:24.016Z,3.47
2023-03-31T22:42:50.554Z,6.83
2023-03-31T22:45:17.022Z,2.70
2023-03-31T22:47:43.573Z,3.53
2023-03-31T22:50:11.027Z,4.53
2023-03-31T22:52:37.724Z,3.27
2023-03-31T22:55:05.437Z,2.70
2023-03-31T22:57:32.173Z,4.07
2023-03-31T22:59:58.940Z,3.50
2023-03-31T23:02:25.510Z,3.80
2023-03-31T23:04:52.003Z,1.80
2023-03-31T23:07:18.518Z,4.87
2023-03-31T23:09:45.384Z,4.40
2023-03-31T23:12:11.844Z,3.03
2023-03-31T23:14:38.397Z,3.20
2023-03-31T23:17:04.844Z,3.73
2023-03-31T23:19:31.885Z,6.57
2023-03-31T23:21:58.389Z,4.27
2023-03-31T23:24:26.051Z,6.57
2023-03-31T23:26:52.567Z,4.00
2023-03-31T23:29:19.077Z,5.07
2023-03-31T23:31:45.736Z,3.03
2023-03-31T23:34:13.952Z,2.87
2023-03-31T23:36:40.497Z,6.97
2023-03-31T23:39:07.018Z,3.57
2023-03-31T23:41:33.526Z,4.60
2023-03-31T23:44:00.094Z,3.60
2023-03-31T23:46:26.710Z,4.00
2023-03-31T23:48:53.531Z,4.87
2023-03-31T23:51:20.236Z,3.43
2023-03-31T23:53:47.416Z,2.47
2023-03-31T23:56:14.492Z,3.73
2023-03-31T23:58:42.968Z,3.00
